Time;durP1;ratioP1;P1;durP2;ratioP2;P2;SDS_P1;SDS_P2;PMS_P1;PMS_P2;Temp;Humidity;BMP_temperature;BMP_pressure;BME280_temperature;BME280_humidity;BME280_pressure;Samples;Min_cycle;Max_cycle;Signal;HPM_P1;HPM_P2
2021/12/14 00:00:48;;;;;;;38.58;16.65;;;;;;;-0.52;75.06;100211.28;5030939;28;20132;-64
2021/12/14 00:03:19;;;;;;;46.05;18.63;;;;;;;-0.52;74.75;100214.84;5031773;28;20045;-67
2021/12/14 00:05:46;;;;;;;;;;;;;;;-0.55;75.09;100214.50;5029220;28;20054;-67
2021/12/14 00:08:15;;;;;;;49.65;18.10;;;;;;;-0.56;74.65;100210.13;5031851;28;19925;-58
2021/12/14 00:15:59;;;;;;;47.95;19.73;;;;;;;-0.54;74.39;100230.66;5032515;28;20515;-59
2021/12/14 00:18:26;;;;;;;50.22;19.35;;;;;;;-0.55;74.55;100219.97;5031648;28;20536;-60
2021/12/14 00:21:05;;;;;;;54.10;18.67;;;;;;;-0.52;75.08;100223.06;5032265;28;20049;-60
2021/12/14 00:26:20;;;;;;;41.47;17.67;;;;;;;-0.53;74.74;100226.03;5031977;28;20045;-60
2021/12/14 00:28:48;;;;;;;42.80;18.70;;;;;;;-0.55;74.76;100233.63;5031079;28;20049;-57
2021/12/14 00:31:19;;;;;;;41.75;17.75;;;;;;;-0.56;74.99;100231.97;5032353;28;20091;-59
2021/12/14 00:33:51;;;;;;;41.40;16.42;;;;;;;-0.59;75.09;100233.28;5031308;28;20049;-57
2021/12/14 00:36:19;;;;;;;40.22;16.73;;;;;;;-0.59;74.99;100227.00;5032175;28;20072;-59
2021/12/14 00:38:51;;;;;;;48.35;17.88;;;;;;;-0.54;74.95;100229.81;5031214;28;20152;-60
2021/12/14 00:41:24;;;;;;;43.83;19.45;;;;;;;-0.52;74.47;100223.06;5031646;28;20519;-60
2021/12/14 00:43:51;;;;;;;43.60;16.95;;;;;;;-0.53;74.79;100226.84;5031667;28;20067;-60
2021/12/14 00:46:18;;;;;;;43.78;17.05;;;;;;;-0.53;75.03;100215.91;5032132;28;20412;-59
2021/12/14 00:48:46;;;;;;;36.63;16.33;;;;;;;-0.54;74.77;100221.63;5031241;28;20056;-62
2021/12/14 00:51:13;;;;;;;45.22;18.13;;;;;;;-0.53;74.41;100223.31;5031253;28;20045;-62
2021/12/14 00:53:41;;;;;;;42.78;17.15;;;;;;;-0.53;74.51;100220.56;5035056;28;20057;-62
2021/12/14 00:56:12;;;;;;;45.05;18.00;;;;;;;-0.54;74.47;100214.25;5035612;28;20080;-62
2021/12/14 00:58:40;;;;;;;35.38;15.70;;;;;;;-0.65;74.82;100217.06;5035461;28;20469;-62
2021/12/14 01:01:11;;;;;;;46.88;17.38;;;;;;;-0.68;75.06;100214.81;5035792;28;20136;-63
2021/12/14 01:03:41;;;;;;;34.63;15.27;;;;;;;-0.70;75.08;100219.69;5034723;28;20177;-62
2021/12/14 01:06:11;;;;;;;37.78;14.63;;;;;;;-0.71;75.26;100215.28;5035500;28;20135;-62
2021/12/14 01:08:41;;;;;;;37.58;13.70;;;;;;;-0.87;75.39;100219.63;5035027;28;20621;-62
2021/12/14 01:11:20;;;;;;;40.83;15.93;;;;;;;-0.90;75.66;100219.25;5035670;28;20060;-62
2021/12/14 01:14:00;;;;;;;33.88;14.10;;;;;;;-0.98;75.56;100217.75;5034870;28;20057;-62
2021/12/14 01:16:48;;;;;;;34.42;15.65;;;;;;;-1.04;76.06;100226.09;5035704;28;20144;-62
2021/12/14 01:19:24;;;;;;;35.22;14.52;;;;;;;-1.12;75.72;100210.06;5031393;28;20136;-62
2021/12/14 01:22:15;;;;;;;38.13;14.98;;;;;;;-1.10;75.79;100218.84;5035146;28;20144;-62
2021/12/14 01:27:21;;;;;;;33.65;14.70;;;;;;;-0.97;75.38;100213.13;5034976;28;20167;-62
2021/12/14 01:29:52;;;;;;;44.50;16.95;;;;;;;-0.90;75.13;100208.34;5035064;28;20119;-62
2021/12/14 01:32:21;;;;;;;36.60;14.70;;;;;;;-0.86;75.17;100210.34;5034247;28;20052;-62
2021/12/14 01:34:48;;;;;;;36.75;16.58;;;;;;;-0.82;75.01;100205.22;5035129;28;20084;-62
2021/12/14 01:37:21;;;;;;;48.10;18.00;;;;;;;-0.78;75.25;100212.69;5034552;28;20063;-62
2021/12/14 01:40:04;;;;;;;41.97;16.33;;;;;;;-0.77;75.03;100208.06;5026998;28;20052;-63
2021/12/14 01:42:35;;;;;;;40.80;16.23;;;;;;;-0.74;74.96;100213.06;5034598;28;20046;-62
2021/12/14 01:45:20;;;;;;;42.85;16.80;;;;;;;-0.77;74.79;100206.16;5034757;28;20052;-64
2021/12/14 01:47:50;;;;;;;31.92;14.50;;;;;;;-0.81;75.06;100210.44;5032112;28;20061;-62
2021/12/14 01:50:30;;;;;;;44.42;15.02;;;;;;;-0.76;75.04;100204.25;5031414;28;20097;-62
2021/12/14 01:52:59;;;;;;;37.07;15.60;;;;;;;-0.75;74.40;100204.03;5033058;28;20053;-62
2021/12/14 01:55:30;;;;;;;37.50;15.45;;;;;;;-0.72;74.61;100205.41;5034512;28;20053;-62
2021/12/14 01:58:00;;;;;;;34.08;14.75;;;;;;;-0.68;74.48;100206.63;5034484;28;20476;-62
2021/12/14 02:00:44;;;;;;;33.30;14.73;;;;;;;-0.67;74.21;100191.88;5034359;28;20076;-62
2021/12/14 02:03:15;;;;;;;36.78;15.23;;;;;;;-0.68;74.65;100195.69;5033912;28;20128;-63
2021/12/14 02:05:49;;;;;;;35.55;14.68;;;;;;;-0.79;74.56;100211.06;5032655;28;20049;-63
2021/12/14 02:08:25;;;;;;;41.28;14.60;;;;;;;-0.81;74.89;100201.41;5034289;28;20421;-63
2021/12/14 02:10:56;;;;;;;33.70;14.70;;;;;;;-0.88;75.02;100206.22;5033648;28;20045;-63
2021/12/14 02:13:46;;;;;;;36.70;14.73;;;;;;;-0.86;74.82;100204.06;5015854;28;20592;-62
2021/12/14 02:16:17;;;;;;;42.67;16.15;;;;;;;-0.91;74.84;100191.16;5034341;28;20049;-62
2021/12/14 02:19:00;;;;;;;38.40;15.43;;;;;;;-0.97;75.00;100194.84;5033476;28;20649;-63
2021/12/14 02:21:28;;;;;;;33.05;14.43;;;;;;;-0.94;75.13;100188.06;5033749;28;20521;-62
2021/12/14 02:23:58;;;;;;;31.73;13.75;;;;;;;-1.01;75.34;100190.09;5033655;28;20109;-63
2021/12/14 02:26:29;;;;;;;33.85;14.88;;;;;;;-0.99;75.53;100198.88;5033916;28;20050;-62
2021/12/14 02:28:59;;;;;;;27.65;13.32;;;;;;;-0.91;75.06;100198.50;5015757;28;20107;-64
2021/12/14 02:31:27;;;;;;;32.65;14.25;;;;;;;-0.84;74.93;100201.91;5034169;28;20068;-64
2021/12/14 02:33:56;;;;;;;28.73;13.57;;;;;;;-0.90;74.78;100202.88;5033371;28;20103;-64
2021/12/14 02:36:31;;;;;;;33.55;15.02;;;;;;;-0.88;75.14;100212.50;5033711;28;20056;-65
2021/12/14 02:39:11;;;;;;;34.28;15.07;;;;;;;-0.82;75.25;100213.44;5033264;28;20076;-64
2021/12/14 02:41:49;;;;;;;37.22;15.48;;;;;;;-0.76;74.62;100202.38;5033707;28;20044;-65
2021/12/14 02:44:16;;;;;;;32.30;14.60;;;;;;;-0.78;74.71;100201.78;5032837;28;20054;-64
2021/12/14 02:46:47;;;;;;;34.95;15.07;;;;;;;-0.85;75.08;100200.25;5033650;28;20053;-64
2021/12/14 02:49:16;;;;;;;;;;;;;;;-0.87;74.89;100188.75;5033439;28;20080;-64
2021/12/14 02:51:57;;;;;;;37.42;14.07;;;;;;;-0.85;74.92;100189.34;5033788;28;20262;-64
2021/12/14 02:54:28;;;;;;;33.90;14.48;;;;;;;-0.87;75.01;100191.47;5033032;28;20416;-69
2021/12/14 02:57:09;;;;;;;33.30;14.23;;;;;;;-0.80;74.51;100183.97;5033581;28;20412;-65
2021/12/14 02:59:39;;;;;;;34.67;14.50;;;;;;;-0.79;74.63;100185.63;5033003;28;20527;-65
2021/12/14 03:02:11;;;;;;;37.70;16.20;;;;;;;-0.76;74.60;100182.41;5031474;28;20048;-65
2021/12/14 03:04:42;;;;;;;32.00;14.52;;;;;;;-0.74;74.35;100180.28;5029939;28;20058;-64
2021/12/14 03:07:12;;;;;;;30.33;13.85;;;;;;;-0.72;74.58;100172.66;5033133;28;20045;-64
2021/12/14 03:12:39;;;;;;;34.80;13.55;;;;;;;-0.77;74.79;100181.56;5029016;28;20578;-66
2021/12/14 03:15:15;;;;;;;34.50;14.30;;;;;;;-0.78;75.04;100200.94;5023838;28;20420;-65
2021/12/14 03:17:45;;;;;;;32.38;14.60;;;;;;;-0.86;74.67;100198.59;5032602;28;20051;-65
2021/12/14 03:20:14;;;;;;;33.25;13.32;;;;;;;-1.01;75.40;100199.09;5032952;28;20079;-65
2021/12/14 03:22:57;;;;;;;27.67;12.57;;;;;;;-1.09;75.42;100198.66;5032953;28;20516;-64
2021/12/14 03:25:24;;;;;;;26.65;11.88;;;;;;;-1.07;75.32;100204.72;5024783;28;20049;-65
2021/12/14 03:27:52;;;;;;;27.98;12.52;;;;;;;-1.10;75.42;100199.75;5030929;28;20139;-64
2021/12/14 03:30:25;;;;;;;31.95;13.27;;;;;;;-1.11;75.41;100196.19;5031393;28;20053;-66
2021/12/14 03:32:56;;;;;;;31.88;12.95;;;;;;;-1.13;75.60;100192.03;5032477;28;20046;-68
2021/12/14 03:35:43;;;;;;;;;;;;;;;-1.15;75.37;100191.44;5031761;28;20410;-68
2021/12/14 03:38:21;;;;;;;29.80;12.73;;;;;;;-1.22;75.68;100188.84;5032384;28;19932;-67
2021/12/14 03:41:06;;;;;;;32.55;12.40;;;;;;;-1.25;75.51;100191.25;5031939;28;20063;-65
2021/12/14 03:43:35;;;;;;;29.67;13.00;;;;;;;-1.28;75.81;100186.25;5024596;28;20114;-62
2021/12/14 03:46:04;;;;;;;30.63;12.07;;;;;;;-1.27;75.64;100185.19;5032433;28;20045;-63
2021/12/14 03:48:32;;;;;;;31.73;12.75;;;;;;;-1.33;75.71;100188.88;5032820;28;20053;-65
2021/12/14 03:50:59;;;;;;;29.67;12.55;;;;;;;-1.27;75.53;100196.09;5025832;28;20060;-65
2021/12/14 03:53:26;;;;;;;29.58;13.27;;;;;;;-1.19;75.44;100193.81;5032301;28;20050;-65
2021/12/14 03:56:00;;;;;;;26.63;13.27;;;;;;;-1.06;75.33;100199.03;5031908;28;20508;-65
2021/12/14 03:58:35;;;;;;;26.63;13.00;;;;;;;-1.03;75.08;100186.78;5032277;28;20509;-65
2021/12/14 04:01:25;;;;;;;29.30;12.30;;;;;;;-1.11;75.23;100189.88;5031361;28;20041;-64
2021/12/14 04:04:00;;;;;;;28.50;12.45;;;;;;;-1.19;75.55;100187.56;5032133;28;20061;-65
2021/12/14 04:06:27;;;;;;;25.85;12.05;;;;;;;-1.27;75.33;100190.66;5030716;28;20049;-65
2021/12/14 04:08:55;;;;;;;29.30;13.25;;;;;;;-1.23;75.58;100197.25;5032375;28;20045;-64
2021/12/14 04:11:23;;;;;;;29.77;12.93;;;;;;;-1.21;75.18;100195.97;5032960;28;20049;-64
2021/12/14 04:13:53;;;;;;;30.05;12.20;;;;;;;-1.23;75.17;100184.47;5031934;28;20060;-68
2021/12/14 04:16:23;;;;;;;27.17;12.80;;;;;;;-1.26;75.40;100201.31;5031645;28;20056;-65
2021/12/14 04:18:50;;;;;;;28.08;11.32;;;;;;;-1.26;75.06;100193.13;5032133;28;20041;-66
2021/12/14 04:21:19;;;;;;;26.65;11.73;;;;;;;-1.18;74.81;100200.97;5031600;28;20060;-65
2021/12/14 04:23:50;;;;;;;30.55;12.90;;;;;;;-1.12;75.04;100207.34;5031902;28;20103;-65
2021/12/14 04:26:18;;;;;;;23.95;12.23;;;;;;;-1.06;74.98;100200.91;5031487;28;20404;-67
2021/12/14 04:28:52;;;;;;;31.25;13.02;;;;;;;-0.98;74.73;100206.00;5030708;28;20081;-65
2021/12/14 04:31:20;;;;;;;27.65;13.43;;;;;;;-0.94;74.47;100207.16;5031800;28;20071;-65
2021/12/14 04:33:49;;;;;;;27.88;13.27;;;;;;;-0.93;74.38;100197.91;5032192;28;20056;-65
2021/12/14 04:36:22;;;;;;;24.17;11.55;;;;;;;-0.89;74.31;100199.09;5043527;28;20052;-65
2021/12/14 04:39:01;;;;;;;29.35;11.15;;;;;;;-0.96;74.78;100209.31;5038640;28;20406;-65
2021/12/14 04:53:10;;;;;;;36.05;13.57;;;;;;;-0.88;74.07;100217.13;5027598;28;20052;-65
2021/12/14 04:55:39;;;;;;;32.28;12.80;;;;;;;-0.89;74.57;100215.47;5027344;28;20131;-68
2021/12/14 04:58:06;;;;;;;26.73;12.95;;;;;;;-0.88;74.15;100211.66;5031386;28;20401;-64
2021/12/14 05:00:38;;;;;;;39.75;14.77;;;;;;;-0.86;74.05;100217.72;5031593;28;20045;-64
2021/12/14 05:03:35;;;;;;;42.53;15.48;;;;;;;-0.92;73.97;100218.69;5031381;28;20115;-64
2021/12/14 05:06:15;;;;;;;37.88;14.93;;;;;;;-0.97;74.36;100219.41;5029513;28;20068;-65
2021/12/14 05:11:16;;;;;;;30.08;12.85;;;;;;;-0.99;74.10;100226.16;5031434;28;20096;-64
2021/12/14 05:14:05;;;;;;;33.10;14.00;;;;;;;-1.03;74.26;100225.00;5031337;28;20057;-66
2021/12/14 05:16:33;;;;;;;38.60;13.90;;;;;;;-1.02;74.53;100222.03;5030737;28;20045;-65
2021/12/14 05:19:24;;;;;;;31.90;14.20;;;;;;;-0.93;74.48;100219.75;5030894;28;20056;-64
2021/12/14 05:21:53;;;;;;;37.38;14.48;;;;;;;-0.92;74.34;100219.50;5031194;28;20052;-65
2021/12/14 05:24:25;;;;;;;33.22;13.57;;;;;;;-0.94;74.17;100223.56;5029727;28;20065;-65
2021/12/14 05:26:59;;;;;;;30.92;13.80;;;;;;;-0.90;73.98;100227.44;5021625;28;20124;-66
2021/12/14 05:29:28;;;;;;;32.15;14.18;;;;;;;-0.91;74.23;100234.00;5031005;28;20058;-68
2021/12/14 05:31:58;;;;;;;34.78;14.88;;;;;;;-0.89;74.20;100235.41;5031694;28;20414;-65
2021/12/14 05:34:26;;;;;;;;;;;;;;;-0.91;74.09;100245.75;5031337;28;20057;-65
2021/12/14 05:36:54;;;;;;;35.58;14.65;;;;;;;-0.91;73.97;100242.19;5030191;28;20344;-65
2021/12/14 05:44:39;;;;;;;33.15;14.05;;;;;;;-0.91;73.69;100234.84;5034247;28;20505;-65
2021/12/14 05:47:10;;;;;;;42.20;16.40;;;;;;;-0.93;73.89;100236.97;5035121;28;20451;-60
2021/12/14 05:49:42;;;;;;;38.40;14.95;;;;;;;-1.00;73.74;100235.44;5034247;28;20580;-60
2021/12/14 05:52:17;;;;;;;29.20;14.35;;;;;;;-1.02;73.97;100238.41;5026382;28;20046;-59
2021/12/14 05:54:46;;;;;;;32.33;14.05;;;;;;;-0.99;74.13;100239.81;5033823;28;20049;-60
2021/12/14 05:57:17;;;;;;;32.20;13.70;;;;;;;-0.97;73.45;100237.69;5034494;28;20137;-61
2021/12/14 05:59:45;;;;;;;41.65;14.82;;;;;;;-0.99;73.75;100237.09;5032333;28;20467;-62
2021/12/14 06:02:13;;;;;;;36.58;14.52;;;;;;;-1.00;73.79;100240.91;5034416;28;20049;-62
2021/12/14 06:04:46;;;;;;;36.08;14.15;;;;;;;-1.01;73.95;100239.25;5033638;28;20128;-62
2021/12/14 06:07:14;;;;;;;31.63;13.18;;;;;;;-1.02;73.81;100243.88;5033882;28;20128;-62
2021/12/14 06:09:45;;;;;;;40.80;13.65;;;;;;;-1.04;73.67;100245.19;5033516;28;20045;-66
2021/12/14 06:12:25;;;;;;;30.45;12.95;;;;;;;-1.03;73.43;100252.31;5034506;28;20532;-63
2021/12/14 06:14:55;;;;;;;36.22;13.35;;;;;;;-1.04;73.59;100250.66;5029683;28;20057;-61
2021/12/14 06:17:30;;;;;;;27.45;12.75;;;;;;;-1.04;73.51;100245.19;5033852;28;20072;-62
2021/12/14 06:20:00;;;;;;;35.10;13.13;;;;;;;-1.00;73.49;100236.28;5033578;28;20449;-66
2021/12/14 06:22:29;;;;;;;28.52;12.40;;;;;;;-0.97;73.49;100246.72;5033950;28;20042;-66
2021/12/14 06:25:00;;;;;;;27.60;11.85;;;;;;;-1.00;73.52;100240.91;5032638;28;20132;-64
2021/12/14 06:27:31;;;;;;;29.63;12.55;;;;;;;-1.04;73.72;100247.94;5027443;28;20063;-62
2021/12/14 06:30:01;;;;;;;32.38;14.30;;;;;;;-1.06;73.34;100252.78;5033702;28;20059;-63
2021/12/14 06:32:37;;;;;;;31.17;13.70;;;;;;;-1.09;73.41;100253.25;5032385;28;20043;-62
2021/12/14 06:35:10;;;;;;;28.92;12.35;;;;;;;-1.07;73.44;100253.88;5033717;28;20049;-62
2021/12/14 06:38:11;;;;;;;34.05;13.40;;;;;;;-1.01;73.10;100248.25;5033469;28;20056;-62
2021/12/14 06:40:50;;;;;;;31.55;12.95;;;;;;;-0.95;72.81;100246.47;5025452;28;20058;-62
2021/12/14 06:43:20;;;;;;;34.33;13.95;;;;;;;-0.97;73.25;100245.88;5032715;28;20068;-67
2021/12/14 06:45:55;;;;;;;29.13;14.02;;;;;;;-1.07;73.05;100238.28;5033403;28;20053;-62
2021/12/14 06:48:32;;;;;;;36.10;13.98;;;;;;;-1.09;72.88;100236.88;5033075;28;20053;-63
2021/12/14 06:51:08;;;;;;;30.33;12.57;;;;;;;-1.06;72.93;100239.13;5023289;28;20136;-62
2021/12/14 06:53:36;;;;;;;34.72;13.73;;;;;;;-1.00;72.97;100244.47;5030151;28;20124;-63
2021/12/14 06:56:06;;;;;;;34.28;14.32;;;;;;;-0.92;72.82;100249.53;5032868;28;20404;-62
2021/12/14 06:58:38;;;;;;;32.03;14.23;;;;;;;-0.92;72.54;100246.00;5029703;28;20050;-62
2021/12/14 07:01:17;;;;;;;40.47;15.13;;;;;;;-0.90;72.45;100252.03;5033220;28;20049;-68
2021/12/14 07:03:49;;;;;;;37.67;14.77;;;;;;;-0.97;72.35;100251.34;5030920;28;20042;-62
2021/12/14 07:06:31;;;;;;;36.78;15.52;;;;;;;-0.99;72.68;100261.66;5032860;28;21147;-63
2021/12/14 07:09:20;;;;;;;32.22;15.15;;;;;;;-1.11;72.55;100266.31;5031318;28;20049;-62
2021/12/14 07:11:58;;;;;;;40.83;16.20;;;;;;;-1.23;72.72;100265.50;5031925;28;20054;-62
2021/12/14 07:14:28;;;;;;;34.55;14.55;;;;;;;-1.21;72.65;100271.56;5032131;28;20528;-62
2021/12/14 07:16:58;;;;;;;29.58;14.55;;;;;;;-1.19;72.46;100274.88;5029083;28;20057;-63
2021/12/14 07:19:46;;;;;;;41.63;16.83;;;;;;;-1.11;72.50;100272.63;5032346;28;20051;-62
2021/12/14 07:22:53;;;;;;;36.95;14.68;;;;;;;-1.14;72.13;100277.72;5031818;28;20042;-63
2021/12/14 07:25:29;;;;;;;32.10;13.02;;;;;;;-1.10;72.23;100271.53;5032552;28;20053;-63
2021/12/14 07:27:59;;;;;;;33.00;13.43;;;;;;;-1.00;72.06;100279.13;5032284;28;20556;-62
2021/12/14 07:30:33;;;;;;;31.60;13.17;;;;;;;-0.90;71.84;100273.88;5032713;28;20056;-63
2021/12/14 07:33:08;;;;;;;38.13;14.82;;;;;;;-0.84;71.75;100273.75;5032321;28;20830;-64
2021/12/14 07:35:47;;;;;;;33.00;13.77;;;;;;;-0.80;71.75;100274.91;5032796;28;20091;-62
2021/12/14 07:38:25;;;;;;;32.33;13.60;;;;;;;-0.80;71.44;100274.91;5023868;28;20500;-63
2021/12/14 07:40:58;;;;;;;32.60;13.68;;;;;;;-0.75;71.43;100272.31;5032509;28;20064;-63
2021/12/14 07:43:30;;;;;;;24.07;10.50;;;;;;;-0.70;71.48;100275.16;5031406;28;20055;-63
2021/12/14 07:45:58;;;;;;;37.08;13.82;;;;;;;-0.62;71.21;100282.13;5032279;28;20775;-62
2021/12/14 07:48:44;;;;;;;33.13;15.65;;;;;;;-0.57;71.38;100280.31;5030295;28;20136;-62
2021/12/14 07:51:14;;;;;;;33.30;13.52;;;;;;;-0.61;71.86;100289.25;5029269;28;20504;-63
2021/12/14 07:53:45;;;;;;;37.92;15.55;;;;;;;-0.61;71.45;100283.78;5031666;28;20071;-63
2021/12/14 07:56:57;;;;;;;30.60;13.98;;;;;;;-0.63;71.27;100296.84;5031429;28;20049;-63
2021/12/14 07:59:34;;;;;;;41.10;14.25;;;;;;;-0.67;71.90;100282.03;5026485;28;20401;-63
2021/12/14 08:02:20;;;;;;;39.05;14.85;;;;;;;-0.62;71.72;100287.59;5031779;28;20152;-63
2021/12/14 08:05:18;;;;;;;33.95;13.50;;;;;;;-0.75;71.77;100280.50;5031327;28;20049;-63
2021/12/14 08:08:16;;;;;;;38.13;13.75;;;;;;;-0.80;72.03;100285.03;5031967;28;20060;-62
2021/12/14 08:10:58;;;;;;;37.75;15.48;;;;;;;-0.74;71.83;100290.34;5031115;28;20056;-63
2021/12/14 08:13:26;;;;;;;38.92;14.57;;;;;;;-0.65;71.54;100282.63;5030959;28;20418;-64
2021/12/14 08:15:57;;;;;;;27.45;12.70;;;;;;;-0.56;71.24;100289.34;5031891;28;20050;-62
2021/12/14 08:18:31;;;;;;;34.78;13.73;;;;;;;-0.69;71.77;100287.72;5031339;28;20520;-63
2021/12/14 08:21:02;;;;;;;39.10;14.75;;;;;;;-0.76;72.01;100281.56;5031947;28;20103;-64
2021/12/14 08:23:33;;;;;;;37.63;15.23;;;;;;;-0.71;71.81;100289.84;5031218;28;20049;-63
2021/12/14 08:26:06;;;;;;;39.00;14.95;;;;;;;-0.73;71.73;100289.28;5020808;28;20057;-63
2021/12/14 08:29:07;;;;;;;36.28;14.90;;;;;;;-0.81;71.99;100286.09;5031170;28;20054;-63
2021/12/14 08:31:45;;;;;;;43.60;15.10;;;;;;;-0.77;71.78;100279.09;5023967;28;20088;-64
2021/12/14 08:34:25;;;;;;;39.28;14.68;;;;;;;-0.64;71.23;100278.81;5031934;28;20041;-64
2021/12/14 08:37:00;;;;;;;30.63;13.32;;;;;;;-0.61;71.16;100287.34;5031366;28;20064;-63
2021/12/14 08:39:31;;;;;;;42.40;14.93;;;;;;;-0.57;71.19;100291.25;5031896;28;20060;-64
2021/12/14 08:42:45;;;;;;;36.53;14.80;;;;;;;-0.46;70.83;100281.34;5031693;28;20041;-64
2021/12/14 08:45:27;;;;;;;33.63;13.35;;;;;;;-0.50;70.87;100282.94;5028766;28;20049;-64
2021/12/14 08:48:24;;;;;;;34.90;13.38;;;;;;;-0.57;71.34;100279.47;5025462;28;20092;-63
2021/12/14 08:50:58;;;;;;;29.67;12.65;;;;;;;-0.63;71.03;100283.19;5032534;28;20061;-63
2021/12/14 08:53:30;;;;;;;43.67;13.88;;;;;;;-0.62;71.50;100282.94;5031151;28;20485;-63
2021/12/14 08:56:01;;;;;;;49.67;18.52;;;;;;;-0.57;71.17;100284.94;5031652;28;20589;-64
2021/12/14 08:58:28;;;;;;;75.28;26.80;;;;;;;-0.48;70.79;100280.75;5031145;28;20057;-65
2021/12/14 09:01:08;;;;;;;42.15;16.67;;;;;;;-0.44;70.62;100284.69;5031637;28;20057;-64
2021/12/14 09:03:45;;;;;;;35.63;13.15;;;;;;;-0.43;70.93;100286.34;5030681;28;20054;-64
2021/12/14 09:06:21;;;;;;;39.58;16.10;;;;;;;-0.41;70.91;100284.19;5031652;28;20041;-63
2021/12/14 09:08:50;;;;;;;41.63;17.45;;;;;;;-0.44;70.40;100284.69;5031028;28;20076;-63
2021/12/14 09:11:22;;;;;;;42.72;16.40;;;;;;;-0.43;70.38;100289.06;5030817;28;20061;-62
2021/12/14 09:13:51;;;;;;;38.13;15.40;;;;;;;-0.49;70.49;100292.78;5024334;28;20509;-63
2021/12/14 09:16:22;;;;;;;50.10;16.17;;;;;;;-0.50;70.43;100285.66;5034637;28;20060;-63
2021/12/14 09:18:55;;;;;;;33.78;14.98;;;;;;;-0.47;70.46;100293.38;5034465;28;20128;-64
2021/12/14 09:21:28;;;;;;;37.75;17.05;;;;;;;-0.42;70.53;100290.72;5034366;28;20136;-63
2021/12/14 09:23:59;;;;;;;43.95;16.77;;;;;;;-0.37;70.15;100290.81;5031362;28;20049;-63
2021/12/14 09:26:34;;;;;;;40.00;16.23;;;;;;;-0.37;70.31;100286.19;5026068;28;20053;-63
2021/12/14 09:29:03;;;;;;;34.63;14.93;;;;;;;-0.38;70.03;100278.25;5031711;28;20089;-63
2021/12/14 09:31:33;;;;;;;40.77;15.07;;;;;;;-0.37;70.05;100279.91;5034431;28;20045;-63
2021/12/14 09:34:00;;;;;;;46.60;17.17;;;;;;;-0.38;69.85;100283.72;5031346;28;20056;-63
2021/12/14 09:36:29;;;;;;;40.45;15.45;;;;;;;-0.39;70.11;100268.38;5034177;28;20132;-67
2021/12/14 09:39:19;;;;;;;41.20;16.00;;;;;;;-0.37;70.07;100277.16;5031168;28;20051;-67
2021/12/14 09:41:53;;;;;;;38.65;15.85;;;;;;;-0.37;70.31;100277.16;5033973;28;20057;-63
2021/12/14 09:44:25;;;;;;;48.47;17.33;;;;;;;-0.31;69.83;100278.91;5034163;28;20405;-63
2021/12/14 09:46:55;;;;;;;46.58;16.60;;;;;;;-0.28;70.23;100272.97;5034402;28;20107;-63
2021/12/14 09:49:26;;;;;;;39.80;17.35;;;;;;;-0.30;70.05;100272.38;5034271;28;20485;-67
2021/12/14 09:51:59;;;;;;;38.00;17.15;;;;;;;-0.27;69.86;100264.50;5034272;28;20049;-64
2021/12/14 09:54:28;;;;;;;46.55;16.65;;;;;;;-0.36;70.01;100265.13;5034393;28;20476;-65
2021/12/14 09:57:09;;;;;;;54.20;16.98;;;;;;;-0.34;70.05;100273.94;5032567;28;20120;-65
2021/12/14 09:59:37;;;;;;;42.17;16.55;;;;;;;-0.33;70.24;100273.69;5034178;28;20052;-65
2021/12/14 10:02:10;;;;;;;41.70;17.52;;;;;;;-0.29;69.64;100255.72;5034036;28;20095;-65
2021/12/14 10:04:49;;;;;;;45.17;19.30;;;;;;;-0.28;69.89;100256.56;5033656;28;20524;-64
2021/12/14 10:07:16;;;;;;;41.78;16.60;;;;;;;-0.33;69.97;100267.38;5033869;28;20049;-64
2021/12/14 10:09:48;;;;;;;43.20;17.92;;;;;;;-0.34;70.34;100263.00;5033839;28;20092;-64
2021/12/14 10:15:18;;;;;;;43.28;17.02;;;;;;;-0.33;70.15;100265.50;5033785;28;20061;-64
2021/12/14 10:17:46;;;;;;;44.75;16.60;;;;;;;-0.39;70.34;100266.47;5034070;28;20084;-64
2021/12/14 10:20:19;;;;;;;39.60;16.45;;;;;;;-0.42;70.06;100272.44;5033231;28;20119;-65
2021/12/14 10:22:46;;;;;;;44.33;17.27;;;;;;;-0.53;70.19;100275.22;5033594;28;20049;-64
2021/12/14 10:25:18;;;;;;;42.28;16.65;;;;;;;-0.54;70.57;100273.53;5032614;28;20521;-64
2021/12/14 10:27:46;;;;;;;46.80;17.42;;;;;;;-0.51;69.99;100279.34;5033892;28;20049;-65
2021/12/14 10:30:34;;;;;;;38.65;16.85;;;;;;;-0.45;69.74;100277.53;5033737;28;20148;-64
2021/12/14 10:33:03;;;;;;;44.10;16.83;;;;;;;-0.45;69.79;100274.81;5033562;28;20041;-64
2021/12/14 10:35:38;;;;;;;36.63;16.75;;;;;;;-0.40;70.18;100270.28;5033081;28;20076;-64
2021/12/14 10:44:04;;;;;;;42.17;15.57;;;;;;;-0.41;69.71;100278.72;5032972;28;20389;-63
2021/12/14 10:46:40;;;;;;;39.05;15.25;;;;;;;-0.35;69.87;100277.75;5033678;28;20095;-65
2021/12/14 10:49:07;;;;;;;44.63;15.55;;;;;;;-0.35;69.52;100272.28;5031580;28;20099;-64
2021/12/14 10:51:37;;;;;;;39.17;15.80;;;;;;;-0.34;69.58;100274.78;5031557;28;20057;-64
2021/12/14 10:54:09;;;;;;;37.80;14.77;;;;;;;-0.41;69.85;100273.25;5032881;28;20055;-64
2021/12/14 10:56:43;;;;;;;32.08;14.82;;;;;;;-0.49;69.65;100273.66;5033182;28;20357;-63
2021/12/14 10:59:16;;;;;;;42.15;15.15;;;;;;;-0.53;69.94;100272.47;5032736;28;20472;-64
2021/12/14 11:01:50;;;;;;;48.33;18.48;;;;;;;-0.47;69.70;100274.25;5032588;28;20057;-63
2021/12/14 11:04:40;;;;;;;43.50;15.60;;;;;;;-0.43;69.47;100270.78;5029275;28;20149;-64
2021/12/14 11:07:11;;;;;;;40.58;15.73;;;;;;;-0.42;69.52;100272.44;5032631;28;20111;-64
2021/12/14 11:09:42;;;;;;;41.45;15.82;;;;;;;-0.51;69.65;100267.59;5032608;28;20059;-64
2021/12/14 11:12:15;;;;;;;42.47;14.70;;;;;;;-0.61;69.59;100264.66;5032564;28;20127;-64
2021/12/14 11:14:42;;;;;;;30.90;14.40;;;;;;;-0.81;70.25;100256.03;5031997;28;20144;-64
2021/12/14 11:20:14;;;;;;;44.42;16.25;;;;;;;-0.84;70.13;100260.09;5032502;28;20053;-64
2021/12/14 11:22:50;;;;;;;46.63;16.50;;;;;;;-0.72;70.41;100255.44;5029488;28;20144;-64
2021/12/14 11:25:46;;;;;;;40.83;15.52;;;;;;;-0.62;70.00;100255.63;5032234;28;20198;-64
2021/12/14 11:28:24;;;;;;;38.45;14.50;;;;;;;-0.52;69.84;100255.00;5032382;28;20390;-64
2021/12/14 11:30:57;;;;;;;39.20;15.18;;;;;;;-0.47;69.74;100252.38;5031837;28;20142;-64
2021/12/14 11:33:29;;;;;;;40.08;16.67;;;;;;;-0.51;69.56;100251.19;5032235;28;20609;-63
2021/12/14 11:36:14;;;;;;;36.28;15.82;;;;;;;-0.51;69.56;100245.72;5030286;28;20451;-58
2021/12/14 11:38:48;;;;;;;36.08;16.40;;;;;;;-0.51;69.42;100245.72;5027190;28;20045;-61
2021/12/14 11:42:20;;;;;;;54.53;18.08;;;;;;;-0.58;69.52;100231.38;5024981;28;20056;-61
2021/12/14 11:45:00;;;;;;;35.08;15.98;;;;;;;-0.61;69.56;100240.91;5026225;28;20045;-61
2021/12/14 11:50:27;;;;;;;40.00;16.35;;;;;;;-0.71;69.93;100248.88;5030906;28;20394;-61
2021/12/14 11:53:00;;;;;;;41.28;16.00;;;;;;;-0.67;70.04;100247.34;5029450;28;20152;-65
2021/12/14 11:55:44;;;;;;;44.20;19.55;;;;;;;-0.65;69.83;100244.38;5024614;28;20053;-65
2021/12/14 11:58:38;;;;;;;45.38;18.63;;;;;;;-0.65;70.19;100247.09;5021579;28;20045;-66
2021/12/14 12:01:16;;;;;;;44.13;17.17;;;;;;;-0.68;69.73;100244.84;5027852;28;20055;-61
2021/12/14 12:03:56;;;;;;;42.42;17.08;;;;;;;-0.66;69.80;100243.53;5023902;28;20049;-62
2021/12/14 12:09:28;;;;;;;36.90;16.38;;;;;;;-0.65;69.87;100250.66;5028416;28;20479;-65
2021/12/14 12:09:41;;;;;;;39.22;17.40;;;;;;;-0.68;70.21;100251.13;5024935;28;20044;-60
2021/12/14 12:12:11;;;;;;;51.90;19.95;;;;;;;-0.62;69.71;100243.88;5026361;28;20091;-61
2021/12/14 12:15:01;;;;;;;59.90;20.90;;;;;;;-0.60;69.99;100239.00;5030501;28;20088;-61
2021/12/14 12:17:40;;;;;;;;;;;;;;;-0.65;70.23;100234.25;5025123;28;20103;-63
2021/12/14 12:20:17;;;;;;;53.63;19.48;;;;;;;-0.61;69.97;100249.09;5037406;28;20380;-66
2021/12/14 12:22:56;;;;;;;55.42;19.25;;;;;;;-0.64;69.77;100249.59;5022864;28;20128;-65
2021/12/14 12:25:26;;;;;;;50.33;20.63;;;;;;;-0.70;69.86;100250.56;5023937;28;20136;-66
2021/12/14 12:28:01;;;;;;;47.63;20.00;;;;;;;-0.69;70.00;100257.69;5023425;28;20061;-62
2021/12/14 12:31:06;;;;;;;51.13;18.85;;;;;;;-0.68;70.30;100258.53;5023779;28;20295;-62
2021/12/14 12:33:57;;;;;;;53.65;19.38;;;;;;;-0.66;69.98;100261.81;5014906;28;20112;-62